x

Folly Island, Sc (fbis1) Weather Station

10:00am - Tue 9th Feb 2016 All times are EST. -5 hours from GMT.

  • Wind
    13mph, 20mph gusts
  • Air Temp 44°f
  • Sea Pressure 1010.9mb
  • Folly Island, Sc
  • Folly Island, Sc

More Historic Weather Station data

Upgrade to MSW Pro to gain access to the past 30 days of data for over 8000 Wavebouys and Weather Stations around the globe.

Join Pro

Comparision Forecast

View Surf forecast
   
Tue 02/09 10:00am 13 20 mph 1010.9mb 44f
9:00am 11 21 mph 1011.6mb 42f
8:00am 10 17 mph 1010.8mb 40f
7:00am 8 11 mph 1009.9mb 39f
6:00am 9 14 mph 1009.3mb 39f
5:00am 8 13 mph 1008.7mb 40f
4:00am 8 11 mph 1008.1mb 40f
3:00am 10 15 mph 1007.7mb 41f
2:00am 8 14 mph 1007.6mb 42f
1:00am 7 9 mph 1007.2mb 43f
12:00am 8 13 mph 1006.8mb 45f
Mon 02/08 11:00pm 5 6 mph 1006.4mb 45f
10:00pm 2 3 mph 1006.8mb 46f
9:00pm 10 18 mph 1007.4mb 47f
8:00pm 7 11 mph 1007.9mb 47f
7:00pm 14 22 mph 1007.7mb 48f
6:00pm 23 26 mph 1005.8mb 56f
5:00pm 21 24 mph 1006.7mb 55f
4:00pm 22 25 mph 1006.9mb 55f
3:00pm 21 28 mph 1007.5mb 54f
2:00pm 21 23 mph 1008.7mb 53f
1:00pm 17 20 mph 1010.1mb 53f
12:00pm 16 18 mph 1011.4mb 52f
11:00am 14 16 mph 1012.1mb 51f
10:00am 5 7 mph 1012.4mb 49f
9:00am 7 10 mph 1012.6mb 45f
8:00am 8 11 mph 1013mb 43f
7:00am 7 9 mph 1013.3mb 42f
6:00am 7 9 mph 1012.8mb 41f
5:00am 6 7 mph 1012.6mb 40f
4:00am 6 7 mph 1013.1mb 38f
3:00am 6 7 mph 1013.2mb 39f
2:00am 6 7 mph 1013.4mb 38f
1:00am 6 7 mph 1013.8mb 39f
12:00am 6 7 mph 1013.6mb 40f
Sun 02/07 11:00pm 5 7 mph 1013.9mb 42f
10:00pm 7 11 mph 1013.6mb 44f
9:00pm 7 11 mph 1013.2mb 44f
8:00pm 7 11 mph 1013mb 45f
7:00pm 7 14 mph 1012.7mb 45f
6:00pm 11 17 mph 1011.8mb 45f
5:00pm 9 13 mph 1012mb 44f
4:00pm 16 22 mph 1012.1mb 42f
3:00pm 14 21 mph 1012mb 41f
2:00pm 17 24 mph 1011.3mb 41f
1:00pm 15 20 mph 1012.2mb 41f
12:00pm 24 32 mph 1012.6mb 39f
11:00am 11 16 mph 1013.9mb 40f
10:00am 14 18 mph 1013.9mb 41f
9:00am 14 16 mph 1014mb 41f
8:00am 14 18 mph 1013.6mb 41f
7:00am 18 22 mph 1013.8mb 41f
6:00am 16 22 mph 1013.8mb 42f
5:00am 17 22 mph 1014mb 41f
4:00am 21 25 mph 1015.3mb 40f
3:00am 20 24 mph 1015.7mb 40f
2:00am 22 26 mph 1016.2mb 41f
1:00am 23 29 mph 1017.7mb 40f
12:00am 20 22 mph 1019.2mb 41f
Sat 02/06 11:00pm 21 25 mph 1020.3mb 42f
10:00pm 22 26 mph 1021.6mb 42f
9:00pm 23 26 mph 1021.3mb 43f
8:00pm 18 23 mph 1022.5mb 44f
7:00pm 18 23 mph 1023.2mb 45f
6:00pm 15 17 mph 1023.9mb 47f
5:00pm 14 17 mph 1024mb 48f
4:00pm 18 22 mph 1023.5mb 49f
3:00pm 23 25 mph 1024.1mb 49f
2:00pm 21 24 mph 1024.8mb 49f
1:00pm 20 23 mph 1025.5mb 49f
12:00pm 23 26 mph 1027.1mb 48f
11:00am 21 23 mph 1028mb 46f
10:00am 21 23 mph 1028.6mb 45f
9:00am 18 21 mph 1028.5mb 45f
8:00am 20 23 mph 1028.7mb 45f
7:00am 18 21 mph 1028.1mb 44f
6:00am 21 25 mph 1027.9mb 44f
5:00am 18 22 mph 1028.2mb 44f
4:00am 13 16 mph 1027.5mb 44f
3:00am 16 20 mph 1027.8mb 46f
2:00am 14 16 mph 1028.5mb 47f
1:00am 11 15 mph 1028.6mb 46f
12:00am 10 13 mph 1028.9mb 46f
Fri 02/05 11:00pm 11 13 mph 1029.2mb 47f
10:00pm 13 15 mph 1029.2mb 47f
9:00pm 11 15 mph 1028.8mb 48f
8:00pm 8 11 mph 1028.7mb 49f
7:00pm 11 14 mph 1027.9mb 49f
6:00pm 11 13 mph 1026.8mb 50f
5:00pm 8 10 mph 1026.3mb 51f